Terminal Aerodrome Forecast
Issued by NWS

Home | Current Version | Previous Version | Text Only | Print | Product List | Glossary On
Versions: 1 2 3 4 5 6 7 8 9 10 11 12 13 14 15 16 17 18
000
FTUS45 KGGW 191100
TAFSDY
TAF
KSDY 191126Z 1912/2012 VRB04KT P6SM BCFG BKN150
     FM191500 VRB05KT P6SM SCT150
     FM200500 VRB05KT P6SM BKN080
      AMD LTD TO CLD VIS AND WIND=

USA.gov is the U.S. government's official web portal to all federal, state and local government web resources and services.